createdAt,value
2023-03-01T00:01:22.346Z,45.13
2023-03-01T00:03:50.379Z,49.75
2023-03-01T00:06:19.072Z,60.08
2023-03-01T00:08:47.197Z,56.45
2023-03-01T00:11:18.521Z,52.97
2023-03-01T00:13:47.458Z,55.63
2023-03-01T00:16:40.304Z,48.80
2023-03-01T00:19:13.495Z,44.50
2023-03-01T00:24:09.803Z,52.90
2023-03-01T00:26:38.114Z,55.45
2023-03-01T00:29:06.056Z,46.63
2023-03-01T00:31:34.289Z,50.40
2023-03-01T00:34:04.527Z,47.05
2023-03-01T00:36:35.101Z,55.38
2023-03-01T00:39:04.445Z,47.20
2023-03-01T00:41:32.710Z,36.17
2023-03-01T00:44:00.703Z,56.75
2023-03-01T00:46:28.743Z,46.42
2023-03-01T00:48:56.878Z,55.47
2023-03-01T00:51:26.996Z,29.80
2023-03-01T00:53:56.501Z,33.65
2023-03-01T00:56:25.069Z,57.67
2023-03-01T00:58:53.199Z,56.13
2023-03-01T01:01:28.686Z,42.63
2023-03-01T01:03:58.925Z,58.63
2023-03-01T01:06:32.057Z,55.72
2023-03-01T01:09:00.826Z,48.30
2023-03-01T01:11:29.572Z,61.35
2023-03-01T01:13:57.575Z,51.35
2023-03-01T01:16:26.905Z,38.28
2023-03-01T01:18:55.154Z,26.25
2023-03-01T01:21:24.228Z,33.30
2023-03-01T01:23:52.819Z,27.95
2023-03-01T01:26:24.699Z,29.73
2023-03-01T01:28:52.731Z,38.95
2023-03-01T01:31:20.934Z,35.10
2023-03-01T01:33:48.947Z,30.55
2023-03-01T01:36:16.666Z,40.30
2023-03-01T01:38:45.220Z,45.75
2023-03-01T01:41:13.722Z,54.28
2023-03-01T01:43:44.348Z,48.30
2023-03-01T01:46:18.098Z,61.58
2023-03-01T01:48:51.681Z,62.35
2023-03-01T01:51:21.627Z,61.03
2023-03-01T01:53:52.648Z,58.75
2023-03-01T01:56:20.709Z,59.63
2023-03-01T01:58:49.222Z,58.75
2023-03-01T02:01:17.258Z,74.63
2023-03-01T02:03:45.232Z,58.28
2023-03-01T02:06:34.155Z,67.35
2023-03-01T02:09:13.562Z,71.30
2023-03-01T02:11:41.335Z,75.35
2023-03-01T02:14:10.357Z,88.40
2023-03-01T02:16:38.176Z,98.80
2023-03-01T02:19:06.721Z,110.50
2023-03-01T02:21:48.509Z,105.25
2023-03-01T02:24:23.685Z,115.15
2023-03-01T02:26:53.798Z,103.28
2023-03-01T02:29:23.017Z,101.40
2023-03-01T02:31:51.417Z,100.55
2023-03-01T02:34:21.851Z,100.53
2023-03-01T02:36:51.901Z,88.57
2023-03-01T02:39:53.800Z,91.75
2023-03-01T02:42:27.854Z,84.75
2023-03-01T02:44:56.197Z,101.05
2023-03-01T02:47:24.646Z,90.75
2023-03-01T02:49:53.084Z,72.78
2023-03-01T02:52:45.730Z,79.78
2023-03-01T02:55:15.686Z,62.38
2023-03-01T02:57:46.362Z,62.97
2023-03-01T03:00:29.315Z,64.20
2023-03-01T03:02:58.602Z,51.22
2023-03-01T03:05:31.444Z,42.35
2023-03-01T03:08:00.871Z,37.95
2023-03-01T03:10:32.706Z,38.28
2023-03-01T03:13:14.522Z,35.50
2023-03-01T03:15:44.053Z,25.25
2023-03-01T03:18:14.240Z,28.02
2023-03-01T03:20:42.952Z,29.55
2023-03-01T03:23:10.999Z,33.83
2023-03-01T03:25:39.123Z,27.85
2023-03-01T03:28:11.299Z,24.42
2023-03-01T03:30:41.077Z,25.92
2023-03-01T03:33:11.878Z,25.75
2023-03-01T03:35:46.682Z,18.37
2023-03-01T03:38:18.222Z,28.30
2023-03-01T03:41:06.459Z,29.13
2023-03-01T03:43:36.457Z,19.90
2023-03-01T03:46:08.238Z,22.95
2023-03-01T03:48:38.793Z,26.40
2023-03-01T03:51:07.523Z,25.15
2023-03-01T03:53:35.520Z,25.48
2023-03-01T03:56:04.764Z,28.95
2023-03-01T03:58:33.861Z,30.45
2023-03-01T04:01:02.305Z,31.85
2023-03-01T04:03:30.771Z,29.58
2023-03-01T04:05:59.828Z,36.25
2023-03-01T04:08:27.960Z,38.38
2023-03-01T04:11:01.902Z,30.80
2023-03-01T04:13:29.690Z,32.95
2023-03-01T04:15:57.953Z,29.38
2023-03-01T04:18:26.830Z,28.83
2023-03-01T04:20:56.803Z,34.03
2023-03-01T04:23:24.835Z,25.40
2023-03-01T04:25:57.859Z,28.63
2023-03-01T04:28:37.293Z,25.15
2023-03-01T04:31:17.058Z,25.08
2023-03-01T04:33:49.233Z,32.10
2023-03-01T04:36:17.797Z,26.77
2023-03-01T04:38:49.036Z,25.75
2023-03-01T04:41:22.041Z,22.05
2023-03-01T04:43:50.218Z,24.38
2023-03-01T04:46:19.827Z,22.90
2023-03-01T04:48:51.270Z,22.95
2023-03-01T04:51:19.824Z,18.80
2023-03-01T04:53:48.098Z,20.40
2023-03-01T04:56:16.042Z,20.70
2023-03-01T04:58:44.294Z,25.42
2023-03-01T05:01:20.314Z,17.35
2023-03-01T05:03:50.580Z,18.08
2023-03-01T05:06:18.994Z,18.23
2023-03-01T05:08:46.923Z,19.10
2023-03-01T05:11:14.980Z,17.88
2023-03-01T05:13:43.175Z,19.85
2023-03-01T05:16:14.422Z,22.27
2023-03-01T05:18:42.495Z,23.45
2023-03-01T05:21:12.081Z,21.17
2023-03-01T05:23:40.551Z,21.85
2023-03-01T05:26:16.130Z,25.98
2023-03-01T05:28:53.994Z,20.17
2023-03-01T05:31:21.986Z,22.95
2023-03-01T05:33:50.158Z,25.00
2023-03-01T05:36:20.100Z,24.73
2023-03-01T05:38:47.881Z,26.90
2023-03-01T05:41:17.408Z,22.90
2023-03-01T05:43:46.353Z,21.65
2023-03-01T05:46:16.889Z,23.20
2023-03-01T05:48:45.086Z,20.67
2023-03-01T05:51:13.501Z,23.17
2023-03-01T05:53:41.264Z,20.50
2023-03-01T05:56:10.071Z,19.20
2023-03-01T05:58:40.229Z,20.42
2023-03-01T06:01:13.821Z,20.67
2023-03-01T06:03:41.925Z,19.23
2023-03-01T06:06:09.915Z,22.13
2023-03-01T06:08:38.151Z,21.15
2023-03-01T06:11:07.070Z,19.58
2023-03-01T06:13:35.507Z,14.68
2023-03-01T06:16:07.518Z,17.13
2023-03-01T06:18:35.683Z,14.45
2023-03-01T06:21:03.351Z,14.88
2023-03-01T06:23:31.586Z,14.85
2023-03-01T06:25:59.644Z,15.43
2023-03-01T06:28:27.453Z,10.10
2023-03-01T06:30:55.392Z,6.25
2023-03-01T06:33:25.491Z,10.23
2023-03-01T06:35:56.059Z,8.25
2023-03-01T06:38:25.935Z,7.15
2023-03-01T06:40:55.891Z,6.97
2023-03-01T06:43:24.907Z,11.23
2023-03-01T06:45:54.389Z,10.60
2023-03-01T06:48:22.611Z,9.35
2023-03-01T06:50:50.522Z,12.18
2023-03-01T06:53:18.455Z,7.90
2023-03-01T06:55:46.589Z,12.75
2023-03-01T06:58:14.728Z,15.00
2023-03-01T07:00:44.758Z,13.23
2023-03-01T07:03:12.936Z,18.17
2023-03-01T07:05:41.055Z,20.38
2023-03-01T07:08:08.843Z,23.10
2023-03-01T07:10:37.269Z,19.90
2023-03-01T07:13:05.465Z,21.17
2023-03-01T07:15:34.204Z,23.55
2023-03-01T07:18:02.288Z,18.77
2023-03-01T07:20:30.347Z,30.48
2023-03-01T07:22:59.970Z,30.23
2023-03-01T07:25:28.359Z,47.30
2023-03-01T07:27:56.379Z,25.92
2023-03-01T07:30:27.205Z,19.83
2023-03-01T07:32:55.888Z,22.02
2023-03-01T07:35:24.941Z,19.77
2023-03-01T07:37:53.006Z,22.20
2023-03-01T07:40:20.907Z,22.98
2023-03-01T07:42:49.144Z,28.48
2023-03-01T07:45:17.350Z,28.15
2023-03-01T07:47:45.289Z,24.42
2023-03-01T07:50:12.903Z,22.42
2023-03-01T07:52:41.386Z,27.10
2023-03-01T07:55:09.604Z,25.17
2023-03-01T07:57:37.497Z,29.75
2023-03-01T08:00:05.916Z,37.75
2023-03-01T08:02:40.555Z,18.85
2023-03-01T08:05:08.688Z,16.92
2023-03-01T08:07:37.006Z,19.55
2023-03-01T08:10:05.461Z,18.85
2023-03-01T08:12:33.925Z,15.77
2023-03-01T08:15:02.021Z,12.27
2023-03-01T08:17:30.276Z,17.48
2023-03-01T08:19:58.149Z,17.80
2023-03-01T08:22:26.602Z,17.65
2023-03-01T08:24:57.144Z,15.50
2023-03-01T08:27:25.604Z,16.25
2023-03-01T08:29:53.856Z,15.32
2023-03-01T08:32:22.039Z,18.38
2023-03-01T08:34:50.184Z,14.60
2023-03-01T08:37:18.285Z,13.88
2023-03-01T08:39:46.373Z,14.50
2023-03-01T08:42:14.249Z,10.05
2023-03-01T08:44:42.557Z,10.70
2023-03-01T08:47:11.045Z,10.50
2023-03-01T08:49:39.132Z,10.13
2023-03-01T08:52:06.952Z,11.93
2023-03-01T08:54:35.171Z,9.73
2023-03-01T08:57:04.237Z,14.68
2023-03-01T08:59:37.009Z,11.93
2023-03-01T09:02:06.738Z,8.60
2023-03-01T09:04:34.975Z,9.75
2023-03-01T09:07:03.186Z,10.63
2023-03-01T09:09:31.415Z,11.15
2023-03-01T09:14:44.601Z,15.60
2023-03-01T09:17:19.713Z,14.15
2023-03-01T09:19:48.016Z,12.52
2023-03-01T09:22:16.138Z,12.07
2023-03-01T09:24:44.466Z,11.52
2023-03-01T09:27:14.216Z,12.45
2023-03-01T09:29:42.322Z,13.18
2023-03-01T09:32:10.465Z,12.85
2023-03-01T09:34:56.768Z,14.60
2023-03-01T09:37:24.664Z,10.05
2023-03-01T09:39:52.950Z,9.55
2023-03-01T09:42:20.881Z,13.32
2023-03-01T09:44:51.931Z,14.43
2023-03-01T09:47:31.301Z,24.73
2023-03-01T09:50:05.486Z,12.98
2023-03-01T09:53:01.621Z,18.48
2023-03-01T09:55:55.466Z,26.02
2023-03-01T09:58:26.293Z,18.58
2023-03-01T10:00:54.027Z,22.02
2023-03-01T10:03:45.608Z,28.33
2023-03-01T10:06:27.481Z,16.83
2023-03-01T10:09:11.553Z,26.70
2023-03-01T10:11:41.815Z,34.78
2023-03-01T10:14:34.707Z,38.72
2023-03-01T10:17:06.259Z,31.33
2023-03-01T10:19:38.831Z,38.42
2023-03-01T10:22:24.515Z,35.25
2023-03-01T10:24:53.776Z,34.08
2023-03-01T10:27:28.171Z,28.80
2023-03-01T10:30:28.295Z,23.45
2023-03-01T10:32:56.448Z,27.35
2023-03-01T10:35:26.577Z,23.83
2023-03-01T10:38:04.793Z,24.13
2023-03-01T10:40:34.212Z,25.67
2023-03-01T10:43:06.506Z,28.60
2023-03-01T10:45:36.562Z,28.83
2023-03-01T10:48:11.184Z,19.85
2023-03-01T10:50:42.337Z,20.38
2023-03-01T10:53:42.108Z,44.55
2023-03-01T10:56:17.163Z,25.33
2023-03-01T10:59:06.296Z,34.92
2023-03-01T11:01:36.823Z,36.88
2023-03-01T11:04:10.449Z,40.42
2023-03-01T11:06:39.686Z,43.95
2023-03-01T11:09:21.603Z,49.55
2023-03-01T11:11:59.829Z,54.28
2023-03-01T11:14:29.751Z,69.78
2023-03-01T11:17:14.399Z,61.45
2023-03-01T11:19:45.198Z,53.67
2023-03-01T11:22:21.868Z,48.90
2023-03-01T11:25:07.128Z,53.47
2023-03-01T11:27:40.378Z,53.33
2023-03-01T11:30:32.942Z,45.03
2023-03-01T11:33:10.097Z,60.27
2023-03-01T11:35:59.037Z,74.70
2023-03-01T11:38:27.987Z,69.85
2023-03-01T11:41:08.853Z,75.05
2023-03-01T11:44:02.853Z,76.35
2023-03-01T11:46:43.924Z,53.17
2023-03-01T11:49:36.434Z,63.17
2023-03-01T11:52:34.214Z,74.20
2023-03-01T11:55:35.620Z,73.30
2023-03-01T11:58:48.734Z,85.00
2023-03-01T12:01:33.316Z,92.70
2023-03-01T12:04:23.783Z,70.93
2023-03-01T12:06:58.357Z,67.32
2023-03-01T12:09:36.969Z,68.68
2023-03-01T12:12:11.390Z,76.13
2023-03-01T12:14:51.445Z,68.05
2023-03-01T12:17:47.129Z,66.88
2023-03-01T12:20:27.416Z,83.22
2023-03-01T12:23:37.623Z,107.32
2023-03-01T12:26:29.846Z,132.73
2023-03-01T12:29:20.333Z,153.25
2023-03-01T12:31:51.109Z,141.80
2023-03-01T12:34:32.682Z,135.43
2023-03-01T12:37:28.601Z,140.05
2023-03-01T12:40:34.122Z,105.35
2023-03-01T12:43:09.358Z,100.32
2023-03-01T12:45:49.537Z,100.93
2023-03-01T12:48:32.886Z,92.60
2023-03-01T12:51:03.497Z,57.95
2023-03-01T12:53:37.435Z,61.30
2023-03-01T12:56:13.405Z,67.60
2023-03-01T12:59:09.343Z,59.95
2023-03-01T13:01:46.420Z,56.55
2023-03-01T13:04:28.542Z,51.35
2023-03-01T13:07:11.485Z,57.85
2023-03-01T13:12:48.809Z,62.90
2023-03-01T13:15:37.465Z,62.85
2023-03-01T13:18:06.529Z,73.00
2023-03-01T13:20:45.608Z,78.25
2023-03-01T13:23:26.236Z,96.88
2023-03-01T13:26:00.195Z,89.65
2023-03-01T13:28:38.980Z,117.82
2023-03-01T13:31:08.764Z,117.15
2023-03-01T13:33:42.685Z,77.65
2023-03-01T13:36:13.923Z,136.95
2023-03-01T13:38:49.702Z,131.95
2023-03-01T13:41:40.744Z,122.18
2023-03-01T13:44:22.906Z,135.32
2023-03-01T13:46:52.549Z,135.45
2023-03-01T13:49:22.848Z,146.45
2023-03-01T13:51:51.528Z,151.80
2023-03-01T13:54:31.078Z,105.85
2023-03-01T13:56:59.875Z,137.80
2023-03-01T13:59:27.986Z,136.82
2023-03-01T14:02:01.095Z,116.60
2023-03-01T14:04:37.279Z,90.03
2023-03-01T14:07:19.552Z,97.85
2023-03-01T14:09:55.359Z,88.38
2023-03-01T14:12:46.087Z,90.20
2023-03-01T14:15:34.083Z,80.57
2023-03-01T14:18:28.838Z,53.42
2023-03-01T14:20:56.735Z,62.83
2023-03-01T14:23:25.206Z,49.95
2023-03-01T14:25:56.906Z,66.60
2023-03-01T14:28:39.155Z,50.78
2023-03-01T14:31:33.010Z,58.75
2023-03-01T14:34:04.692Z,53.92
2023-03-01T14:36:34.408Z,42.05
2023-03-01T14:39:06.688Z,36.90
2023-03-01T14:41:37.007Z,37.83
2023-03-01T14:44:09.696Z,51.13
2023-03-01T14:46:39.233Z,71.18
2023-03-01T14:49:14.588Z,52.30
2023-03-01T14:51:44.157Z,44.78
2023-03-01T14:54:29.345Z,40.67
2023-03-01T14:57:01.283Z,45.15
2023-03-01T14:59:29.500Z,57.30
2023-03-01T15:01:59.231Z,65.65
2023-03-01T15:04:27.624Z,72.50
2023-03-01T15:06:56.486Z,69.25
2023-03-01T15:09:24.843Z,82.50
2023-03-01T15:11:53.219Z,83.82
2023-03-01T15:14:29.417Z,84.07
2023-03-01T15:16:57.831Z,81.22
2023-03-01T15:19:25.862Z,83.72
2023-03-01T15:21:53.591Z,79.05
2023-03-01T15:24:30.956Z,73.05
2023-03-01T15:27:03.187Z,72.97
2023-03-01T15:29:34.965Z,73.63
2023-03-01T15:32:07.657Z,83.97
2023-03-01T15:34:38.406Z,102.93
2023-03-01T15:37:42.613Z,68.93
2023-03-01T15:40:33.696Z,74.72
2023-03-01T15:43:06.215Z,69.47
2023-03-01T15:45:39.977Z,64.03
2023-03-01T15:48:17.427Z,44.65
2023-03-01T15:50:47.538Z,49.13
2023-03-01T15:53:18.357Z,55.72
2023-03-01T15:55:48.581Z,51.20
2023-03-01T15:58:23.390Z,63.65
2023-03-01T16:01:01.985Z,74.45
2023-03-01T16:03:30.453Z,57.10
2023-03-01T16:05:58.278Z,58.28
2023-03-01T16:08:26.113Z,64.70
2023-03-01T16:10:56.195Z,59.78
2023-03-01T16:13:24.979Z,57.08
2023-03-01T16:15:52.893Z,64.18
2023-03-01T16:18:21.385Z,67.40
2023-03-01T16:20:50.541Z,64.63
2023-03-01T16:23:18.394Z,73.22
2023-03-01T16:25:46.335Z,80.60
2023-03-01T16:28:15.583Z,57.55
2023-03-01T16:30:47.841Z,61.35
2023-03-01T16:33:29.657Z,63.67
2023-03-01T16:36:22.451Z,60.17
2023-03-01T16:38:50.639Z,57.13
2023-03-01T16:41:21.585Z,53.35
2023-03-01T16:43:49.753Z,68.53
2023-03-01T16:46:18.947Z,55.33
2023-03-01T16:48:47.646Z,53.50
2023-03-01T16:51:15.764Z,53.17
2023-03-01T16:53:46.225Z,54.60
2023-03-01T16:56:15.479Z,55.50
2023-03-01T16:58:44.038Z,54.63
2023-03-01T17:01:19.779Z,51.40
2023-03-01T17:03:48.108Z,50.55
2023-03-01T17:06:19.391Z,47.30
2023-03-01T17:08:47.216Z,51.67
2023-03-01T17:11:17.454Z,46.30
2023-03-01T17:13:45.557Z,42.08
2023-03-01T17:16:15.935Z,54.55
2023-03-01T17:18:44.078Z,53.05
2023-03-01T17:21:12.356Z,50.78
2023-03-01T17:23:42.596Z,45.28
2023-03-01T17:26:10.643Z,40.58
2023-03-01T17:28:38.942Z,36.25
2023-03-01T17:31:07.440Z,39.90
2023-03-01T17:33:35.611Z,31.17
2023-03-01T17:36:04.099Z,35.80
2023-03-01T17:38:31.972Z,34.78
2023-03-01T17:41:01.338Z,34.70
2023-03-01T17:43:29.737Z,33.33
2023-03-01T17:45:57.804Z,34.83
2023-03-01T17:48:26.357Z,32.45
2023-03-01T17:50:54.441Z,36.15
2023-03-01T17:53:22.934Z,27.60
2023-03-01T17:55:54.515Z,28.92
2023-03-01T17:58:23.341Z,26.63
2023-03-01T18:00:51.640Z,35.55
2023-03-01T18:03:21.751Z,32.00
2023-03-01T18:05:49.907Z,34.22
2023-03-01T18:08:17.939Z,23.25
2023-03-01T18:10:45.941Z,30.73
2023-03-01T18:13:15.314Z,30.85
2023-03-01T18:15:43.421Z,27.00
2023-03-01T18:18:11.706Z,34.42
2023-03-01T18:20:39.701Z,47.95
2023-03-01T18:23:07.750Z,52.38
2023-03-01T18:25:35.673Z,57.35
2023-03-01T18:28:03.377Z,65.15
2023-03-01T18:30:31.380Z,69.07
2023-03-01T18:32:59.211Z,80.35
2023-03-01T18:35:27.676Z,82.38
2023-03-01T18:37:55.802Z,69.57
2023-03-01T18:40:23.562Z,58.90
2023-03-01T18:42:51.763Z,46.70
2023-03-01T18:45:19.659Z,45.35
2023-03-01T18:47:50.651Z,57.20
2023-03-01T18:50:18.997Z,48.88
2023-03-01T18:52:46.742Z,45.50
2023-03-01T18:55:15.250Z,53.70
2023-03-01T18:57:42.951Z,57.35
2023-03-01T19:00:11.572Z,56.13
2023-03-01T19:02:39.549Z,58.17
2023-03-01T19:05:08.332Z,59.90
2023-03-01T19:07:36.571Z,56.30
2023-03-01T19:10:05.077Z,63.33
2023-03-01T19:12:34.418Z,57.55
2023-03-01T19:15:04.384Z,58.30
2023-03-01T19:17:32.836Z,56.67
2023-03-01T19:20:00.711Z,54.97
2023-03-01T19:22:29.227Z,53.42
2023-03-01T19:24:57.142Z,52.85
2023-03-01T19:27:24.974Z,44.45
2023-03-01T19:29:53.168Z,35.75
2023-03-01T19:32:20.905Z,42.65
2023-03-01T19:34:49.111Z,37.05
2023-03-01T19:37:17.405Z,35.50
2023-03-01T19:39:45.565Z,35.58
2023-03-01T19:42:13.500Z,39.30
2023-03-01T19:44:42.205Z,32.85
2023-03-01T19:47:10.171Z,34.20
2023-03-01T19:49:38.689Z,30.42
2023-03-01T19:52:06.530Z,38.10
2023-03-01T19:54:34.810Z,23.27
2023-03-01T19:57:03.083Z,21.27
2023-03-01T19:59:31.125Z,18.50
2023-03-01T20:01:59.349Z,22.10
2023-03-01T20:04:27.576Z,20.38
2023-03-01T20:06:55.293Z,17.65
2023-03-01T20:09:23.253Z,17.17
2023-03-01T20:11:52.327Z,19.13
2023-03-01T20:14:23.527Z,15.65
2023-03-01T20:16:52.529Z,17.60
2023-03-01T20:19:20.456Z,18.30
2023-03-01T20:21:48.736Z,26.27
2023-03-01T20:24:16.677Z,28.05
2023-03-01T20:26:44.647Z,33.80
2023-03-01T20:29:13.063Z,36.80
2023-03-01T20:31:42.942Z,39.15
2023-03-01T20:34:10.889Z,54.80
2023-03-01T20:36:39.822Z,57.78
2023-03-01T20:39:07.991Z,28.45
2023-03-01T20:41:35.846Z,20.13
2023-03-01T20:44:06.944Z,23.45
2023-03-01T20:46:35.449Z,21.65
2023-03-01T20:49:04.156Z,23.25
2023-03-01T20:51:32.702Z,31.33
2023-03-01T20:54:00.899Z,29.65
2023-03-01T20:56:29.248Z,26.90
2023-03-01T20:59:08.745Z,21.23
2023-03-01T21:01:37.478Z,23.33
2023-03-01T21:04:05.700Z,26.58
2023-03-01T21:06:33.842Z,28.25
2023-03-01T21:09:02.151Z,26.80
2023-03-01T21:11:30.208Z,25.25
2023-03-01T21:13:58.140Z,25.25
2023-03-01T21:16:26.051Z,24.17
2023-03-01T21:18:55.329Z,25.23
2023-03-01T21:21:24.161Z,27.17
2023-03-01T21:23:52.346Z,24.73
2023-03-01T21:26:24.735Z,28.45
2023-03-01T21:28:56.125Z,28.98
2023-03-01T21:31:29.557Z,34.22
2023-03-01T21:33:59.158Z,24.67
2023-03-01T21:36:28.547Z,24.38
2023-03-01T21:38:56.571Z,28.45
2023-03-01T21:41:26.539Z,26.27
2023-03-01T21:43:57.901Z,25.38
2023-03-01T21:46:26.453Z,30.77
2023-03-01T21:48:55.047Z,28.77
2023-03-01T21:51:25.979Z,26.92
2023-03-01T21:53:55.994Z,27.10
2023-03-01T21:56:29.188Z,26.30
2023-03-01T21:58:57.950Z,25.92
2023-03-01T22:01:27.708Z,29.80
2023-03-01T22:03:56.584Z,29.60
2023-03-01T22:06:34.241Z,31.40
2023-03-01T22:09:08.010Z,33.10
2023-03-01T22:11:37.931Z,34.13
2023-03-01T22:14:06.874Z,38.58
2023-03-01T22:16:36.399Z,34.72
2023-03-01T22:19:05.440Z,39.15
2023-03-01T22:21:33.880Z,43.47
2023-03-01T22:24:02.210Z,43.03
2023-03-01T22:26:34.561Z,41.08
2023-03-01T22:29:03.946Z,47.05
2023-03-01T22:31:32.334Z,41.88
2023-03-01T22:34:00.542Z,44.35
2023-03-01T22:36:28.711Z,42.78
2023-03-01T22:39:00.579Z,46.25
2023-03-01T22:41:30.062Z,42.05
2023-03-01T22:43:58.295Z,48.92
2023-03-01T22:46:27.079Z,40.22
2023-03-01T22:48:55.242Z,48.70
2023-03-01T22:51:28.798Z,47.35
2023-03-01T22:53:56.947Z,43.20
2023-03-01T22:56:30.368Z,44.70
2023-03-01T22:59:03.268Z,42.90
2023-03-01T23:01:31.309Z,42.08
2023-03-01T23:03:59.761Z,47.45
2023-03-01T23:06:31.128Z,47.20
2023-03-01T23:09:01.330Z,47.80
2023-03-01T23:11:29.909Z,48.33
2023-03-01T23:13:59.214Z,49.70
2023-03-01T23:16:27.522Z,51.63
2023-03-01T23:18:56.463Z,49.65
2023-03-01T23:21:24.386Z,51.15
2023-03-01T23:23:52.456Z,58.22
2023-03-01T23:26:22.926Z,49.35
2023-03-01T23:28:51.218Z,55.33
2023-03-01T23:31:19.349Z,51.90
2023-03-01T23:33:47.417Z,49.45
2023-03-01T23:36:23.157Z,51.10
2023-03-01T23:38:53.093Z,48.03
2023-03-01T23:41:22.178Z,52.40
2023-03-01T23:43:53.451Z,53.15
2023-03-01T23:46:23.296Z,59.72
2023-03-01T23:48:51.511Z,63.72
2023-03-01T23:51:19.813Z,52.78
2023-03-01T23:53:54.857Z,55.30
2023-03-01T23:56:26.707Z,61.20
2023-03-01T23:58:55.521Z,47.80
